createdAt,value
2022-10-13T00:00:51.732Z,101768.97
2022-10-13T00:03:20.331Z,101770.94
2022-10-13T00:05:51.085Z,101767.28
2022-10-13T00:08:21.596Z,101762.91
2022-10-13T00:10:51.870Z,101768.97
2022-10-13T00:13:21.602Z,101768.69
2022-10-13T00:15:49.655Z,101761.72
2022-10-13T00:18:18.062Z,101763.81
2022-10-13T00:20:48.611Z,101758.34
2022-10-13T00:23:18.514Z,101753.97
2022-10-13T00:25:49.478Z,101749.28
2022-10-13T00:28:20.734Z,101755.16
2022-10-13T00:30:48.773Z,101759.75
2022-10-13T00:33:17.078Z,101760.63
2022-10-13T00:35:48.177Z,101756.25
2022-10-13T00:38:17.805Z,101754.25
2022-10-13T00:40:48.077Z,101748.59
2022-10-13T00:43:20.749Z,101748.09
2022-10-13T00:45:50.866Z,101753.78
2022-10-13T00:48:21.804Z,101747.28
2022-10-13T00:50:50.113Z,101752.28
2022-10-13T00:53:23.840Z,101744.09
2022-10-13T00:55:54.351Z,101746.31
2022-10-13T00:58:31.233Z,101754.84
2022-10-13T01:01:01.335Z,101759.81
2022-10-13T01:03:29.435Z,101758.22
2022-10-13T01:06:01.498Z,101754.25
2022-10-13T01:08:31.126Z,101748.78
2022-10-13T01:11:26.085Z,101745.41
2022-10-13T01:14:08.391Z,101749.28
2022-10-13T01:16:51.218Z,101745.59
2022-10-13T01:20:11.306Z,101746.13
2022-10-13T01:23:03.979Z,101742.31
2022-10-13T01:26:09.946Z,101744.72
2022-10-13T01:29:09.995Z,101720.06
2022-10-13T01:31:48.823Z,101738.84
2022-10-13T01:34:24.914Z,101730.19
2022-10-13T01:37:04.267Z,101733.97
2022-10-13T01:39:41.686Z,101722.41
2022-10-13T01:42:19.293Z,101718.56
2022-10-13T01:44:55.749Z,101724.84
2022-10-13T01:47:28.922Z,101721.84
2022-10-13T01:49:59.080Z,101717.69
2022-10-13T01:52:34.655Z,101716.06
2022-10-13T01:55:08.163Z,101718.56
2022-10-13T01:57:41.557Z,101706.31
2022-10-13T02:00:13.873Z,101714.50
2022-10-13T02:02:59.499Z,101713.91
2022-10-13T02:05:49.193Z,101702.84
2022-10-13T02:08:25.912Z,101704.47
2022-10-13T02:11:02.879Z,101702.56
2022-10-13T02:13:35.566Z,101704.94
2022-10-13T02:16:04.143Z,101695.69
2022-10-13T02:18:37.113Z,101694.59
2022-10-13T02:21:05.633Z,101702.03
2022-10-13T02:23:33.788Z,101699.38
2022-10-13T02:26:02.646Z,101700.56
2022-10-13T02:28:31.156Z,101704.66
2022-10-13T02:30:59.010Z,101681.69
2022-10-13T02:33:26.869Z,101678.28
2022-10-13T02:35:56.109Z,101682.47
2022-10-13T02:38:23.872Z,101685.72
2022-10-13T02:40:51.708Z,101682.34
2022-10-13T02:43:19.595Z,101676.91
2022-10-13T02:45:47.389Z,101677.00
2022-10-13T02:48:15.235Z,101664.97
2022-10-13T02:50:43.110Z,101671.91
2022-10-13T02:53:12.251Z,101657.78
2022-10-13T02:55:40.063Z,101650.16
2022-10-13T02:58:07.985Z,101662.09
2022-10-13T03:00:35.873Z,101647.28
2022-10-13T03:03:03.770Z,101662.66
2022-10-13T03:05:31.621Z,101664.16
2022-10-13T03:07:59.535Z,101669.22
2022-10-13T03:10:29.494Z,101664.53
2022-10-13T03:12:57.599Z,101658.50
2022-10-13T03:15:25.871Z,101659.47
2022-10-13T03:17:53.703Z,101653.03
2022-10-13T03:20:21.540Z,101657.19
2022-10-13T03:22:50.114Z,101656.56
2022-10-13T03:25:18.474Z,101661.25
2022-10-13T03:27:47.695Z,101661.09
2022-10-13T03:30:15.561Z,101666.28
2022-10-13T03:32:43.513Z,101664.88
2022-10-13T03:35:11.394Z,101663.28
2022-10-13T03:37:39.366Z,101653.16
2022-10-13T03:40:09.283Z,101652.03
2022-10-13T03:42:37.547Z,101649.38
2022-10-13T03:45:09.314Z,101641.31
2022-10-13T03:47:37.834Z,101641.63
2022-10-13T03:50:07.203Z,101647.00
2022-10-13T03:52:35.028Z,101636.94
2022-10-13T03:55:02.943Z,101635.53
2022-10-13T03:57:30.873Z,101632.00
2022-10-13T03:59:58.914Z,101618.47
2022-10-13T04:02:28.409Z,101641.22
2022-10-13T04:04:56.636Z,101635.72
2022-10-13T04:07:24.517Z,101639.13
2022-10-13T04:09:52.501Z,101631.59
2022-10-13T04:12:21.232Z,101632.63
2022-10-13T04:14:49.239Z,101630.13
2022-10-13T04:17:17.466Z,101624.91
2022-10-13T04:19:47.726Z,101626.47
2022-10-13T04:22:15.473Z,101634.31
2022-10-13T04:24:43.482Z,101635.16
2022-10-13T04:27:11.334Z,101636.63
2022-10-13T04:29:39.249Z,101630.97
2022-10-13T04:32:07.087Z,101628.88
2022-10-13T04:34:35.312Z,101623.81
2022-10-13T04:37:04.480Z,101622.03
2022-10-13T04:39:35.156Z,101618.34
2022-10-13T04:42:03.215Z,101620.06
2022-10-13T04:44:31.510Z,101614.78
2022-10-13T04:47:00.776Z,101622.38
2022-10-13T04:49:28.721Z,101621.53
2022-10-13T04:51:56.931Z,101616.56
2022-10-13T04:54:26.154Z,101615.81
2022-10-13T04:56:54.034Z,101610.25
2022-10-13T04:59:21.897Z,101605.84
2022-10-13T05:01:49.746Z,101586.00
2022-10-13T05:04:17.610Z,101611.38
2022-10-13T05:07:12.427Z,101624.19
2022-10-13T05:09:34.842Z,101605.84
2022-10-13T05:12:02.821Z,101609.22
2022-10-13T05:14:33.342Z,101605.84
2022-10-13T05:17:01.245Z,101610.19
2022-10-13T05:19:29.611Z,101607.69
2022-10-13T05:21:57.472Z,101609.28
2022-10-13T05:24:31.184Z,101600.81
2022-10-13T05:27:00.471Z,101604.50
2022-10-13T05:29:28.548Z,101598.91
2022-10-13T05:31:56.339Z,101589.84
2022-10-13T05:34:24.183Z,101589.59
2022-10-13T05:36:52.056Z,101592.13
2022-10-13T05:39:19.916Z,101595.50
2022-10-13T05:41:48.020Z,101593.44
2022-10-13T05:44:17.678Z,101589.53
2022-10-13T05:46:45.885Z,101592.06
2022-10-13T05:49:14.267Z,101590.84
2022-10-13T05:51:48.083Z,101565.16
2022-10-13T05:54:23.025Z,101577.75
2022-10-13T05:56:58.096Z,101591.50
2022-10-13T05:59:32.272Z,101582.03
2022-10-13T06:02:11.203Z,101576.63
2022-10-13T06:04:46.182Z,101585.81
2022-10-13T06:07:14.925Z,101585.47
2022-10-13T06:09:44.118Z,101573.88
2022-10-13T06:12:12.194Z,101593.34
2022-10-13T06:14:41.383Z,101586.88
2022-10-13T06:17:11.646Z,101579.31
2022-10-13T06:19:39.432Z,101588.81
2022-10-13T06:22:07.495Z,101589.97
2022-10-13T06:24:35.315Z,101599.84
2022-10-13T06:27:03.211Z,101582.34
2022-10-13T06:29:32.876Z,101587.09
2022-10-13T06:32:02.043Z,101588.19
2022-10-13T06:34:29.909Z,101580.56
2022-10-13T06:36:58.158Z,101588.38
2022-10-13T06:39:26.408Z,101584.41
2022-10-13T06:41:55.349Z,101577.56
2022-10-13T06:44:23.246Z,101583.16
2022-10-13T06:46:51.100Z,101590.63
2022-10-13T06:49:21.057Z,101585.38
2022-10-13T06:51:49.524Z,101592.84
2022-10-13T06:54:17.586Z,101584.41
2022-10-13T06:56:45.521Z,101582.50
2022-10-13T06:59:13.477Z,101546.84
2022-10-13T07:01:41.964Z,101580.31
2022-10-13T07:04:10.367Z,101571.78
2022-10-13T07:06:39.757Z,101562.31
2022-10-13T07:09:09.290Z,101569.44
2022-10-13T07:11:37.359Z,101576.59
2022-10-13T07:14:05.218Z,101563.44
2022-10-13T07:16:33.387Z,101547.31
2022-10-13T07:19:01.274Z,101562.53
2022-10-13T07:21:29.314Z,101556.66
2022-10-13T07:23:58.497Z,101550.00
2022-10-13T07:26:26.486Z,101545.88
2022-10-13T07:28:54.402Z,101552.97
2022-10-13T07:31:22.662Z,101551.56
2022-10-13T07:33:52.155Z,101547.53
2022-10-13T07:36:20.745Z,101533.50
2022-10-13T07:38:48.788Z,101524.19
2022-10-13T07:41:18.330Z,101527.59
2022-10-13T07:43:46.359Z,101526.53
2022-10-13T07:46:15.250Z,101532.63
2022-10-13T07:48:43.380Z,101530.97
2022-10-13T07:51:14.164Z,101530.63
2022-10-13T07:53:43.686Z,101535.50
2022-10-13T07:56:14.040Z,101536.22
2022-10-13T07:58:46.325Z,101533.72
2022-10-13T08:01:15.482Z,101521.72
2022-10-13T08:03:47.348Z,101509.41
2022-10-13T08:06:18.205Z,101518.88
2022-10-13T08:08:46.054Z,101512.13
2022-10-13T08:11:17.193Z,101502.03
2022-10-13T08:13:50.822Z,101502.03
2022-10-13T08:16:19.172Z,101489.38
2022-10-13T08:18:47.799Z,101495.25
2022-10-13T08:24:09.808Z,101493.41
2022-10-13T08:26:37.696Z,101480.91
2022-10-13T08:29:21.370Z,101482.69
2022-10-13T08:31:51.366Z,101486.63
2022-10-13T08:34:19.391Z,101481.50
2022-10-13T08:36:47.441Z,101486.84
2022-10-13T08:39:15.284Z,101485.84
2022-10-13T08:41:45.617Z,101481.03
2022-10-13T08:47:36.546Z,101480.16
2022-10-13T08:50:12.369Z,101481.41
2022-10-13T08:52:55.003Z,101479.66
2022-10-13T08:55:32.332Z,101463.13
2022-10-13T08:58:02.685Z,101464.84
2022-10-13T09:00:32.125Z,101465.28
2022-10-13T09:03:22.590Z,101459.97
2022-10-13T09:06:06.572Z,101453.69
2022-10-13T09:08:44.081Z,101449.91
2022-10-13T09:11:13.964Z,101449.13
2022-10-13T09:13:41.752Z,101450.72
2022-10-13T09:16:11.379Z,101457.50
2022-10-13T09:18:40.505Z,101452.28
2022-10-13T09:21:20.322Z,101441.38
2022-10-13T09:23:50.740Z,101446.69
2022-10-13T09:26:24.139Z,101453.59
2022-10-13T09:28:53.935Z,101454.66
2022-10-13T09:31:26.967Z,101444.81
2022-10-13T09:34:09.892Z,101449.00
2022-10-13T09:36:39.214Z,101450.00
2022-10-13T09:39:13.566Z,101449.00
2022-10-13T09:41:43.529Z,101455.34
2022-10-13T09:44:17.209Z,101451.63
2022-10-13T09:46:54.302Z,101453.34
2022-10-13T09:49:35.681Z,101451.00
2022-10-13T09:52:07.526Z,101449.69
2022-10-13T09:54:45.121Z,101459.44
2022-10-13T09:57:23.466Z,101461.34
2022-10-13T09:59:54.046Z,101444.47
2022-10-13T10:02:34.946Z,101448.75
2022-10-13T10:05:17.917Z,101458.84
2022-10-13T10:07:46.034Z,101459.53
2022-10-13T10:10:31.473Z,101456.63
2022-10-13T10:12:59.340Z,101456.44
2022-10-13T10:15:39.831Z,101450.72
2022-10-13T10:18:17.790Z,101450.47
2022-10-13T10:21:04.079Z,101439.63
2022-10-13T10:23:46.642Z,101444.03
2022-10-13T10:26:24.327Z,101441.19
2022-10-13T10:29:20.463Z,101429.94
2022-10-13T10:32:04.862Z,101432.38
2022-10-13T10:34:43.313Z,101421.50
2022-10-13T10:37:33.924Z,101429.53
2022-10-13T10:40:20.735Z,101427.94
2022-10-13T10:43:27.205Z,101409.94
2022-10-13T10:45:59.399Z,101410.56
2022-10-13T10:48:33.990Z,101415.88
2022-10-13T10:51:06.875Z,101415.06
2022-10-13T10:53:46.148Z,101413.00
2022-10-13T10:56:28.948Z,101412.59
2022-10-13T10:59:16.812Z,101403.50
2022-10-13T11:01:52.859Z,101406.00
2022-10-13T11:04:41.403Z,101405.94
2022-10-13T11:07:35.690Z,101389.78
2022-10-13T11:10:21.390Z,101381.31
2022-10-13T11:13:18.292Z,101387.56
2022-10-13T11:15:47.708Z,101383.84
2022-10-13T11:19:05.496Z,101395.34
2022-10-13T11:22:25.256Z,101390.19
2022-10-13T11:25:25.731Z,101386.94
2022-10-13T11:27:54.922Z,101388.69
2022-10-13T11:30:55.170Z,101382.03
2022-10-13T11:33:55.878Z,101380.44
2022-10-13T11:36:49.655Z,101374.13
2022-10-13T11:40:10.591Z,101362.16
2022-10-13T11:43:27.209Z,101351.13
2022-10-13T11:46:15.867Z,101344.91
2022-10-13T11:49:20.977Z,101344.03
2022-10-13T11:52:19.208Z,101344.34
2022-10-13T11:54:55.504Z,101336.59
2022-10-13T11:57:27.051Z,101322.41
2022-10-13T11:59:57.942Z,101319.91
2022-10-13T12:02:28.806Z,101316.44
2022-10-13T12:05:06.292Z,101309.44
2022-10-13T12:07:40.621Z,101305.19
2022-10-13T12:10:21.630Z,101314.63
2022-10-13T12:12:51.158Z,101310.03
2022-10-13T12:15:39.171Z,101322.81
2022-10-13T12:18:23.712Z,101311.16
2022-10-13T12:20:57.703Z,101313.25
2022-10-13T12:23:27.022Z,101321.38
2022-10-13T12:25:58.488Z,101302.03
2022-10-13T12:28:30.787Z,101308.31
2022-10-13T12:31:01.481Z,101315.53
2022-10-13T12:33:32.846Z,101307.56
2022-10-13T12:36:15.698Z,101317.19
2022-10-13T12:38:50.158Z,101318.66
2022-10-13T12:41:24.166Z,101306.38
2022-10-13T12:43:53.520Z,101319.50
2022-10-13T12:46:40.385Z,101315.09
2022-10-13T12:49:13.873Z,101321.22
2022-10-13T12:51:44.155Z,101318.22
2022-10-13T12:54:23.492Z,101321.91
2022-10-13T12:56:56.377Z,101316.97
2022-10-13T12:59:27.402Z,101320.91
2022-10-13T13:02:01.114Z,101317.53
2022-10-13T13:04:42.236Z,101320.53
2022-10-13T13:07:30.497Z,101320.00
2022-10-13T13:10:18.932Z,101318.38
2022-10-13T13:12:49.113Z,101311.25
2022-10-13T13:15:36.902Z,101301.63
2022-10-13T13:18:36.893Z,101316.09
2022-10-13T13:21:07.659Z,101312.28
2022-10-13T13:23:36.062Z,101317.72
2022-10-13T13:26:13.315Z,101312.72
2022-10-13T13:28:47.053Z,101307.38
2022-10-13T13:31:17.039Z,101304.44
2022-10-13T13:33:47.051Z,101299.63
2022-10-13T13:36:19.106Z,101289.91
2022-10-13T13:38:47.266Z,101294.22
2022-10-13T13:41:16.407Z,101281.50
2022-10-13T13:43:44.591Z,101278.19
2022-10-13T13:46:19.044Z,101274.06
2022-10-13T13:48:49.378Z,101270.00
2022-10-13T13:51:17.999Z,101264.84
2022-10-13T13:53:46.418Z,101272.09
2022-10-13T13:56:15.805Z,101267.59
2022-10-13T13:58:44.528Z,101264.69
2022-10-13T14:01:13.963Z,101272.03
2022-10-13T14:03:42.189Z,101269.56
2022-10-13T14:06:20.065Z,101258.28
2022-10-13T14:08:48.708Z,101262.31
2022-10-13T14:11:16.767Z,101259.69
2022-10-13T14:13:44.513Z,101249.78
2022-10-13T14:16:18.293Z,101246.50
2022-10-13T14:18:46.392Z,101249.97
2022-10-13T14:21:15.779Z,101254.66
2022-10-13T14:23:46.873Z,101250.13
2022-10-13T14:26:16.033Z,101243.59
2022-10-13T14:28:44.818Z,101236.91
2022-10-13T14:31:13.408Z,101233.94
2022-10-13T14:33:41.818Z,101244.25
2022-10-13T14:36:10.978Z,101240.88
2022-10-13T14:38:40.275Z,101244.38
2022-10-13T14:41:08.676Z,101248.31
2022-10-13T14:43:36.675Z,101235.19
2022-10-13T14:46:06.899Z,101237.63
2022-10-13T14:48:36.780Z,101234.88
2022-10-13T14:51:08.393Z,101239.28
2022-10-13T14:53:37.402Z,101226.94
2022-10-13T14:56:18.237Z,101214.75
2022-10-13T14:58:46.478Z,101220.00
2022-10-13T15:01:14.361Z,101212.22
2022-10-13T15:03:42.370Z,101223.44
2022-10-13T15:06:15.231Z,101224.03
2022-10-13T15:08:44.791Z,101225.59
2022-10-13T15:11:14.829Z,101226.69
2022-10-13T15:13:43.295Z,101226.66
2022-10-13T15:16:17.967Z,101219.47
2022-10-13T15:18:46.023Z,101227.34
2022-10-13T15:21:14.553Z,101233.91
2022-10-13T15:23:42.569Z,101233.00
2022-10-13T15:26:15.144Z,101230.94
2022-10-13T15:28:46.312Z,101245.13
2022-10-13T15:31:15.655Z,101235.63
2022-10-13T15:33:45.862Z,101244.44
2022-10-13T15:36:13.934Z,101249.78
2022-10-13T15:38:42.132Z,101230.09
2022-10-13T15:41:13.861Z,101255.84
2022-10-13T15:43:41.740Z,101254.53
2022-10-13T15:46:20.936Z,101253.66
2022-10-13T15:48:49.185Z,101257.09
2022-10-13T15:51:20.719Z,101245.13
2022-10-13T15:53:50.019Z,101237.28
2022-10-13T15:56:19.520Z,101239.41
2022-10-13T15:58:47.747Z,101245.69
2022-10-13T16:01:15.995Z,101236.50
2022-10-13T16:03:43.893Z,101257.38
2022-10-13T16:06:14.865Z,101253.72
2022-10-13T16:08:44.765Z,101239.28
2022-10-13T16:11:14.582Z,101250.81
2022-10-13T16:13:46.940Z,101255.28
2022-10-13T16:16:15.566Z,101259.44
2022-10-13T16:18:44.904Z,101254.59
2022-10-13T16:21:18.902Z,101254.47
2022-10-13T16:23:47.294Z,101250.50
2022-10-13T16:26:17.270Z,101252.84
2022-10-13T16:28:46.752Z,101253.06
2022-10-13T16:31:17.513Z,101246.44
2022-10-13T16:33:46.863Z,101250.13
2022-10-13T16:36:17.253Z,101257.00
2022-10-13T16:38:46.637Z,101258.06
2022-10-13T16:41:18.263Z,101252.88
2022-10-13T16:43:49.224Z,101251.63
2022-10-13T16:46:19.620Z,101255.06
2022-10-13T16:48:48.729Z,101256.97
2022-10-13T16:51:20.180Z,101255.41
2022-10-13T16:53:53.683Z,101247.72
2022-10-13T16:56:23.500Z,101254.63
2022-10-13T16:58:55.370Z,101256.53
2022-10-13T17:01:24.399Z,101253.25
2022-10-13T17:03:53.203Z,101244.97
2022-10-13T17:06:24.141Z,101255.88
2022-10-13T17:08:52.052Z,101250.72
2022-10-13T17:11:22.802Z,101253.03
2022-10-13T17:13:53.074Z,101252.13
2022-10-13T17:16:21.308Z,101239.16
2022-10-13T17:18:49.130Z,101247.19
2022-10-13T17:21:19.180Z,101257.94
2022-10-13T17:23:48.871Z,101244.22
2022-10-13T17:26:18.373Z,101251.78
2022-10-13T17:28:46.989Z,101254.59
2022-10-13T17:31:20.479Z,101250.84
2022-10-13T17:33:50.460Z,101263.16
2022-10-13T17:36:21.452Z,101257.50
2022-10-13T17:38:50.842Z,101261.25
2022-10-13T17:41:20.246Z,101268.50
2022-10-13T17:43:48.579Z,101267.53
2022-10-13T17:46:38.405Z,101266.66
2022-10-13T17:49:07.994Z,101267.59
2022-10-13T17:51:36.166Z,101271.03
2022-10-13T17:54:05.572Z,101260.00
2022-10-13T17:56:34.240Z,101223.78
2022-10-13T17:59:02.892Z,101254.38
2022-10-13T18:01:35.032Z,101239.44
2022-10-13T18:07:05.938Z,101240.91
2022-10-13T18:09:33.981Z,101252.53
2022-10-13T18:12:01.856Z,101254.44
2022-10-13T18:14:32.510Z,101252.56
2022-10-13T18:17:01.776Z,101250.69
2022-10-13T18:19:29.609Z,101251.38
2022-10-13T18:21:57.541Z,101245.94
2022-10-13T18:24:25.360Z,101249.78
2022-10-13T18:26:53.260Z,101251.69
2022-10-13T18:29:21.346Z,101237.44
2022-10-13T18:31:49.192Z,101242.97
2022-10-13T18:34:19.129Z,101247.47
2022-10-13T18:36:50.504Z,101229.72
2022-10-13T18:39:21.005Z,101253.69
2022-10-13T18:41:50.803Z,101259.78
2022-10-13T18:44:19.078Z,101246.69
2022-10-13T18:46:50.252Z,101251.22
2022-10-13T18:49:23.105Z,101254.06
2022-10-13T18:51:52.646Z,101245.97
2022-10-13T18:54:20.574Z,101244.63
2022-10-13T18:56:48.698Z,101236.72
2022-10-13T18:59:17.612Z,101247.56
2022-10-13T19:01:45.542Z,101242.97
2022-10-13T19:04:14.841Z,101244.75
2022-10-13T19:06:45.365Z,101243.53
2022-10-13T19:09:18.381Z,101242.88
2022-10-13T19:11:46.242Z,101242.63
2022-10-13T19:14:14.724Z,101242.97
2022-10-13T19:16:44.723Z,101246.03
2022-10-13T19:19:15.654Z,101247.94
2022-10-13T19:21:44.920Z,101251.00
2022-10-13T19:24:12.866Z,101253.00
2022-10-13T19:26:41.111Z,101245.38
2022-10-13T19:29:12.592Z,101250.22
2022-10-13T19:31:41.941Z,101229.50
2022-10-13T19:34:11.086Z,101252.50
2022-10-13T19:36:43.263Z,101251.72
2022-10-13T19:39:17.201Z,101252.03
2022-10-13T19:41:46.748Z,101249.22
2022-10-13T19:44:15.598Z,101252.97
2022-10-13T19:46:45.603Z,101255.22
2022-10-13T19:49:16.927Z,101251.81
2022-10-13T19:51:45.767Z,101249.59
2022-10-13T19:54:16.374Z,101252.50
2022-10-13T19:56:45.974Z,101256.22
2022-10-13T19:59:14.206Z,101258.16
2022-10-13T20:01:42.041Z,101256.91
2022-10-13T20:04:11.236Z,101255.88
2022-10-13T20:06:39.451Z,101254.88
2022-10-13T20:09:08.374Z,101253.22
2022-10-13T20:11:37.686Z,101256.34
2022-10-13T20:14:05.771Z,101257.25
2022-10-13T20:16:33.708Z,101256.38
2022-10-13T20:19:02.133Z,101256.38
2022-10-13T20:21:30.713Z,101256.66
2022-10-13T20:23:59.024Z,101258.25
2022-10-13T20:26:27.648Z,101253.59
2022-10-13T20:28:58.169Z,101260.56
2022-10-13T20:31:27.684Z,101258.66
2022-10-13T20:33:57.497Z,101263.38
2022-10-13T20:36:27.230Z,101268.13
2022-10-13T20:38:56.227Z,101268.78
2022-10-13T20:41:27.451Z,101263.34
2022-10-13T20:43:59.141Z,101261.22
2022-10-13T20:46:28.314Z,101255.91
2022-10-13T20:49:13.304Z,101265.44
2022-10-13T20:51:43.136Z,101253.41
2022-10-13T20:54:16.107Z,101263.88
2022-10-13T20:56:44.479Z,101258.72
2022-10-13T20:59:15.481Z,101269.97
2022-10-13T21:01:44.206Z,101267.59
2022-10-13T21:04:12.287Z,101265.13
2022-10-13T21:06:42.222Z,101257.75
2022-10-13T21:09:11.214Z,101267.47
2022-10-13T21:11:39.681Z,101260.63
2022-10-13T21:14:09.636Z,101267.28
2022-10-13T21:16:39.352Z,101260.28
2022-10-13T21:19:08.825Z,101266.69
2022-10-13T21:21:38.981Z,101255.84
2022-10-13T21:24:09.177Z,101251.50
2022-10-13T21:26:38.243Z,101255.44
2022-10-13T21:29:06.875Z,101254.22
2022-10-13T21:31:35.089Z,101256.31
2022-10-13T21:34:04.569Z,101254.41
2022-10-13T21:36:33.913Z,101249.25
2022-10-13T21:39:05.298Z,101248.94
2022-10-13T21:41:33.340Z,101252.53
2022-10-13T21:44:01.234Z,101252.53
2022-10-13T21:46:32.714Z,101252.41
2022-10-13T21:49:04.188Z,101249.06
2022-10-13T21:51:37.302Z,101257.47
2022-10-13T21:54:09.280Z,101259.25
2022-10-13T21:56:38.135Z,101261.97
2022-10-13T21:59:07.699Z,101259.13
2022-10-13T22:01:36.640Z,101259.47
2022-10-13T22:04:06.267Z,101252.03
2022-10-13T22:06:35.903Z,101263.09
2022-10-13T22:09:06.115Z,101263.63
2022-10-13T22:11:37.696Z,101263.75
2022-10-13T22:14:06.880Z,101261.97
2022-10-13T22:16:38.966Z,101265.66
2022-10-13T22:19:07.869Z,101262.84
2022-10-13T22:21:44.081Z,101272.31
2022-10-13T22:24:14.962Z,101265.00
2022-10-13T22:26:44.850Z,101258.66
2022-10-13T22:29:16.855Z,101275.00
2022-10-13T22:31:45.188Z,101262.31
2022-10-13T22:34:14.004Z,101269.63
2022-10-13T22:36:44.995Z,101262.06
2022-10-13T22:39:14.038Z,101257.63
2022-10-13T22:41:42.031Z,101255.06
2022-10-13T22:44:10.485Z,101259.47
2022-10-13T22:46:39.912Z,101256.19
2022-10-13T22:49:09.425Z,101255.72
2022-10-13T22:51:38.314Z,101257.97
2022-10-13T22:54:07.693Z,101257.50
2022-10-13T22:56:36.396Z,101256.47
2022-10-13T22:59:07.435Z,101255.03
2022-10-13T23:01:36.007Z,101251.88
2022-10-13T23:04:04.222Z,101257.38
2022-10-13T23:06:35.553Z,101246.94
2022-10-13T23:09:05.867Z,101232.78
2022-10-13T23:11:35.360Z,101250.91
2022-10-13T23:14:04.443Z,101249.38
2022-10-13T23:16:32.865Z,101256.81
2022-10-13T23:19:00.624Z,101251.88
2022-10-13T23:21:31.066Z,101244.31
2022-10-13T23:24:01.970Z,101247.16
2022-10-13T23:26:31.519Z,101244.69
2022-10-13T23:29:01.383Z,101241.06
2022-10-13T23:31:30.019Z,101251.81
2022-10-13T23:33:59.602Z,101243.94
2022-10-13T23:36:30.539Z,101242.56
2022-10-13T23:39:00.604Z,101232.78
2022-10-13T23:41:29.063Z,101242.31
2022-10-13T23:43:56.959Z,101239.63
2022-10-13T23:46:26.871Z,101235.44
2022-10-13T23:48:54.706Z,101241.81
2022-10-13T23:51:25.599Z,101241.34
2022-10-13T23:53:54.352Z,101238.53
2022-10-13T23:56:22.976Z,101244.72
2022-10-13T23:58:50.862Z,101248.41
